Time;durP1;ratioP1;P1;durP2;ratioP2;P2;SDS_P1;SDS_P2;PMS_P1;PMS_P2;Temp;Humidity;BMP_temperature;BMP_pressure;BME280_temperature;BME280_humidity;BME280_pressure;Samples;Min_cycle;Max_cycle;Signal;HPM_P1;HPM_P2
2021/05/24 00:00:26;;;;;;;2.95;0.88;;;12.90;90.20;;;;;;2063087;28;20117;-68
2021/05/24 00:01:26;;;;;;;1.73;0.80;;;12.90;90.00;;;;;;2062841;28;20046;-68
2021/05/24 00:02:27;;;;;;;1.23;0.60;;;12.90;90.00;;;;;;2062910;28;20068;-68
2021/05/24 00:03:27;;;;;;;1.95;0.68;;;12.90;89.70;;;;;;2062781;28;20092;-68
2021/05/24 00:04:28;;;;;;;2.97;0.75;;;12.90;90.20;;;;;;2062990;28;20556;-68
2021/05/24 00:05:31;;;;;;;1.75;0.60;;;12.90;90.20;;;;;;2062572;28;20026;-68
2021/05/24 00:06:31;;;;;;;2.40;1.08;;;12.90;89.90;;;;;;2062672;28;20057;-68
2021/05/24 00:07:32;;;;;;;2.63;0.90;;;12.90;89.90;;;;;;2062874;28;20026;-68
2021/05/24 00:08:33;;;;;;;2.92;0.65;;;12.90;89.90;;;;;;2063304;28;20272;-69
2021/05/24 00:09:34;;;;;;;1.13;0.73;;;12.90;90.20;;;;;;2063067;28;20042;-68
2021/05/24 00:10:38;;;;;;;2.08;0.88;;;13.00;90.20;;;;;;2063054;28;20030;-68
2021/05/24 00:11:38;;;;;;;1.40;0.80;;;13.00;90.30;;;;;;2062679;28;20829;-68
2021/05/24 00:12:46;;;;;;;1.77;0.90;;;12.90;90.40;;;;;;2062431;28;20380;-68
2021/05/24 00:13:54;;;;;;;2.28;1.10;;;12.90;90.40;;;;;;2063332;28;20085;-68
2021/05/24 00:14:55;;;;;;;2.90;0.73;;;12.90;90.50;;;;;;2061907;28;20015;-68
2021/05/24 00:15:57;;;;;;;1.08;0.60;;;12.90;90.40;;;;;;2062100;28;20548;-68
2021/05/24 00:16:58;;;;;;;1.92;0.73;;;12.90;90.60;;;;;;2063058;28;20026;-68
2021/05/24 00:17:59;;;;;;;2.90;0.70;;;12.90;90.60;;;;;;2063026;28;20030;-68
2021/05/24 00:18:59;;;;;;;2.92;0.85;;;12.90;90.70;;;;;;2063042;28;20023;-68
2021/05/24 00:20:00;;;;;;;1.55;0.73;;;12.90;90.90;;;;;;2062860;28;20054;-68
2021/05/24 00:21:01;;;;;;;2.08;0.60;;;13.00;91.10;;;;;;2063279;28;20058;-68
2021/05/24 00:22:01;;;;;;;3.58;0.90;;;13.00;90.80;;;;;;2062930;28;20394;-68
2021/05/24 00:23:03;;;;;;;2.20;0.63;;;13.00;90.80;;;;;;2062240;28;20034;-68
2021/05/24 00:24:04;;;;;;;3.22;1.10;;;13.00;90.90;;;;;;2062795;28;20417;-68
2021/05/24 00:25:05;;;;;;;1.52;0.70;;;13.00;90.70;;;;;;2063204;28;20034;-68
2021/05/24 00:26:06;;;;;;;6.97;1.08;;;13.00;90.90;;;;;;2062673;28;20076;-68
2021/05/24 00:27:07;;;;;;;4.72;0.90;;;13.00;91.00;;;;;;2062990;28;20030;-68
2021/05/24 00:28:12;;;;;;;1.88;0.90;;;13.00;90.90;;;;;;2063082;28;20056;-68
2021/05/24 00:29:18;;;;;;;1.73;0.70;;;13.00;91.20;;;;;;2063230;28;20023;-68
2021/05/24 00:30:19;;;;;;;1.52;0.77;;;13.00;91.20;;;;;;2062880;28;20121;-68
2021/05/24 00:31:20;;;;;;;1.45;0.90;;;13.00;91.30;;;;;;2062975;28;20046;-68
2021/05/24 00:32:20;;;;;;;2.63;0.93;;;13.00;91.50;;;;;;2062113;28;20019;-68
2021/05/24 00:33:21;;;;;;;1.60;0.70;;;13.00;91.60;;;;;;2063157;28;20126;-68
2021/05/24 00:34:22;;;;;;;14.05;1.30;;;13.00;91.80;;;;;;2062834;28;20065;-68
2021/05/24 00:35:22;;;;;;;3.67;0.95;;;13.00;91.90;;;;;;2063125;28;20022;-68
2021/05/24 00:36:23;;;;;;;1.38;0.70;;;13.00;91.50;;;;;;2063753;28;20038;-68
2021/05/24 00:37:24;;;;;;;1.45;1.02;;;13.00;91.60;;;;;;2064675;28;20058;-68
2021/05/24 00:38:24;;;;;;;1.77;0.68;;;13.00;91.70;;;;;;2064482;28;20057;-68
2021/05/24 00:39:25;;;;;;;0.90;0.75;;;13.00;91.90;;;;;;2064423;28;20105;-68
2021/05/24 00:40:26;;;;;;;1.30;0.82;;;13.00;91.80;;;;;;2064537;28;20040;-68
2021/05/24 00:41:27;;;;;;;1.08;0.50;;;13.10;92.30;;;;;;2064139;28;20544;-68
2021/05/24 00:42:28;;;;;;;2.17;0.68;;;13.00;92.40;;;;;;2063807;28;20433;-68
2021/05/24 00:43:29;;;;;;;0.70;0.60;;;13.00;92.30;;;;;;2064140;28;20070;-68
2021/05/24 00:44:29;;;;;;;1.55;0.77;;;13.00;92.70;;;;;;2064520;28;20034;-68
2021/05/24 00:45:30;;;;;;;1.80;0.60;;;13.10;92.80;;;;;;2064190;28;20381;-68
2021/05/24 00:46:33;;;;;;;6.47;1.48;;;13.00;92.50;;;;;;2063976;28;20031;-68
2021/05/24 00:47:34;;;;;;;2.42;0.77;;;13.00;92.70;;;;;;2063785;28;20033;-68
2021/05/24 00:48:34;;;;;;;0.75;0.52;;;13.00;92.60;;;;;;2064564;28;20522;-68
2021/05/24 00:49:35;;;;;;;1.58;0.93;;;13.10;93.20;;;;;;2064312;28;20476;-68
2021/05/24 00:50:37;;;;;;;1.02;0.60;;;13.00;92.70;;;;;;2064336;28;20065;-68
2021/05/24 00:51:37;;;;;;;0.93;0.52;;;13.10;93.00;;;;;;2063840;28;20030;-68
2021/05/24 00:52:38;;;;;;;2.35;0.80;;;13.00;93.00;;;;;;2063555;28;20033;-68
2021/05/24 00:53:39;;;;;;;2.08;0.88;;;13.00;93.20;;;;;;2063627;28;20109;-68
2021/05/24 00:54:41;;;;;;;3.55;0.50;;;13.00;93.00;;;;;;2064282;28;20026;-68
2021/05/24 00:55:41;;;;;;;1.85;0.70;;;13.00;93.00;;;;;;2064144;28;20030;-68
2021/05/24 00:56:42;;;;;;;1.13;0.88;;;13.00;93.10;;;;;;2064213;28;20521;-68
2021/05/24 00:57:44;;;;;;;4.82;0.80;;;13.00;93.40;;;;;;2064237;28;20038;-68
2021/05/24 00:58:45;;;;;;;1.52;0.88;;;13.10;93.50;;;;;;2064533;28;20470;-68
2021/05/24 00:59:46;;;;;;;1.20;0.80;;;13.10;93.70;;;;;;2064469;28;20026;-68
2021/05/24 01:00:48;;;;;;;1.70;0.70;;;13.10;93.80;;;;;;2064723;28;20072;-68
2021/05/24 01:01:49;;;;;;;3.35;0.70;;;13.00;93.90;;;;;;2064112;28;20080;-68
2021/05/24 01:02:51;;;;;;;3.50;0.90;;;13.10;94.00;;;;;;2063357;28;20057;-69
2021/05/24 01:03:52;;;;;;;1.30;0.52;;;13.10;94.10;;;;;;2064187;28;20070;-68
2021/05/24 01:04:54;;;;;;;2.58;0.80;;;13.00;94.10;;;;;;2064266;28;20022;-68
2021/05/24 01:05:55;;;;;;;2.58;0.85;;;13.10;94.20;;;;;;2064361;28;20350;-68
2021/05/24 01:06:56;;;;;;;3.33;0.90;;;13.10;94.20;;;;;;2064358;28;20035;-68
2021/05/24 01:07:57;;;;;;;1.13;0.82;;;13.10;94.40;;;;;;2064329;28;20382;-68
2021/05/24 01:08:57;;;;;;;2.88;1.00;;;13.10;94.40;;;;;;2064204;28;20050;-68
2021/05/24 01:09:59;;;;;;;1.88;0.90;;;13.10;94.70;;;;;;2064097;28;20490;-68
2021/05/24 01:11:19;;;;;;;2.15;0.70;;;13.10;94.70;;;;;;2064358;28;20033;-68
2021/05/24 01:12:20;;;;;;;2.65;0.80;;;13.10;94.80;;;;;;2061539;28;20027;-69
2021/05/24 01:13:21;;;;;;;2.60;1.00;;;13.10;94.80;;;;;;2064073;28;20533;-68
2021/05/24 01:14:22;;;;;;;1.48;0.60;;;13.10;94.80;;;;;;2063922;28;20034;-68
2021/05/24 01:15:22;;;;;;;1.25;0.50;;;13.10;95.00;;;;;;2064381;28;20026;-68
2021/05/24 01:16:23;;;;;;;1.88;0.57;;;13.10;95.00;;;;;;2064120;28;20022;-68
2021/05/24 01:17:23;;;;;;;3.60;0.80;;;13.10;95.00;;;;;;2064198;28;20050;-68
2021/05/24 01:18:24;;;;;;;3.88;0.90;;;13.10;95.10;;;;;;2064040;28;20022;-68
2021/05/24 01:19:25;;;;;;;1.30;0.57;;;13.10;95.00;;;;;;2064242;28;20382;-68
2021/05/24 01:20:27;;;;;;;1.88;0.85;;;13.10;95.00;;;;;;2064375;28;20026;-68
2021/05/24 01:21:28;;;;;;;2.28;0.82;;;13.10;95.10;;;;;;2064304;28;20112;-68
2021/05/24 01:22:32;;;;;;;3.65;0.80;;;13.10;95.10;;;;;;2063258;28;20089;-68
2021/05/24 01:23:32;;;;;;;3.40;0.77;;;13.10;94.90;;;;;;2064013;28;20560;-68
2021/05/24 01:24:33;;;;;;;2.05;0.65;;;13.10;95.30;;;;;;2063012;28;20437;-68
2021/05/24 01:25:37;;;;;;;1.45;0.75;;;13.10;95.40;;;;;;2063515;28;20089;-68
2021/05/24 01:26:38;;;;;;;1.85;0.85;;;13.10;95.70;;;;;;2064123;28;20453;-68
2021/05/24 01:27:39;;;;;;;2.30;1.15;;;13.10;95.90;;;;;;2062955;28;20478;-68
2021/05/24 01:28:40;;;;;;;1.48;0.60;;;13.10;96.00;;;;;;2064044;28;20070;-68
2021/05/24 01:29:41;;;;;;;1.20;0.47;;;13.10;95.70;;;;;;2063972;28;20050;-68
2021/05/24 01:30:43;;;;;;;2.78;0.65;;;13.10;95.90;;;;;;2063767;28;20031;-68
2021/05/24 01:31:43;;;;;;;2.95;0.60;;;13.10;96.10;;;;;;2071303;28;20030;-68
2021/05/24 01:32:44;;;;;;;0.70;0.50;;;13.10;96.00;;;;;;2070755;28;20027;-68
2021/05/24 01:33:44;;;;;;;2.03;0.75;;;13.20;96.00;;;;;;2063977;28;20061;-68
2021/05/24 01:34:45;;;;;;;1.45;0.63;;;13.20;96.10;;;;;;2063198;28;20026;-68
2021/05/24 01:35:46;;;;;;;1.58;0.60;;;13.20;96.10;;;;;;2063730;28;20513;-68
2021/05/24 01:36:46;;;;;;;1.70;0.60;;;13.20;96.00;;;;;;2064141;28;20470;-68
2021/05/24 01:37:47;;;;;;;0.77;0.73;;;13.20;96.10;;;;;;2063897;28;20034;-68
2021/05/24 01:38:47;;;;;;;2.90;1.00;;;13.20;96.20;;;;;;2063865;28;20031;-68
2021/05/24 01:39:48;;;;;;;1.65;0.70;;;13.20;96.60;;;;;;2063173;28;20090;-68
2021/05/24 01:40:49;;;;;;;1.40;0.68;;;13.20;96.30;;;;;;2063233;28;20041;-68
2021/05/24 01:41:49;;;;;;;1.67;0.70;;;13.30;96.40;;;;;;2064094;28;20033;-68
2021/05/24 01:42:59;;;;;;;1.60;0.88;;;13.30;96.50;;;;;;2063086;28;20026;-68
2021/05/24 01:43:59;;;;;;;4.55;0.95;;;13.30;96.90;;;;;;2064003;28;20026;-68
2021/05/24 01:45:00;;;;;;;1.00;0.68;;;13.30;96.50;;;;;;2063949;28;20101;-68
2021/05/24 01:46:01;;;;;;;1.05;0.70;;;13.30;96.40;;;;;;2064039;28;20393;-68
2021/05/24 01:47:02;;;;;;;2.90;0.90;;;13.30;96.50;;;;;;2063905;28;20028;-68
2021/05/24 01:48:03;;;;;;;0.73;0.70;;;13.30;96.40;;;;;;2062886;28;20058;-68
2021/05/24 01:49:04;;;;;;;2.50;0.57;;;13.30;96.50;;;;;;2063492;28;20054;-68
2021/05/24 01:50:05;;;;;;;2.28;0.60;;;13.30;96.30;;;;;;2064127;28;20524;-68
2021/05/24 01:51:06;;;;;;;2.05;0.50;;;13.40;96.30;;;;;;2063843;28;20200;-68
2021/05/24 01:52:08;;;;;;;2.55;0.70;;;13.40;96.30;;;;;;2063576;28;20033;-68
2021/05/24 01:53:08;;;;;;;2.63;1.23;;;13.40;96.30;;;;;;2063493;28;20062;-68
2021/05/24 01:54:09;;;;;;;1.30;0.60;;;13.50;96.50;;;;;;2063758;28;20026;-68
2021/05/24 01:55:11;;;;;;;2.28;0.57;;;13.50;96.60;;;;;;2063725;28;20061;-68
2021/05/24 01:56:11;;;;;;;2.50;0.70;;;13.40;96.40;;;;;;2064205;28;20019;-68
2021/05/24 01:57:13;;;;;;;1.88;0.60;;;13.40;96.30;;;;;;2063768;28;20426;-68
2021/05/24 01:58:14;;;;;;;3.08;0.68;;;13.50;96.40;;;;;;2063191;28;20022;-68
2021/05/24 01:59:15;;;;;;;1.55;0.50;;;13.40;96.60;;;;;;2063306;28;20532;-68
2021/05/24 02:00:20;;;;;;;1.20;0.55;;;13.40;96.40;;;;;;2063512;28;20085;-68
2021/05/24 02:01:21;;;;;;;2.13;0.85;;;13.50;96.60;;;;;;2065073;28;20034;-68
2021/05/24 02:02:22;;;;;;;2.63;0.70;;;13.50;96.40;;;;;;2064729;28;20053;-68
2021/05/24 02:03:22;;;;;;;1.85;0.40;;;13.50;96.50;;;;;;2064835;28;20038;-68
2021/05/24 02:04:23;;;;;;;1.95;0.75;;;13.50;96.40;;;;;;2064887;28;20057;-68
2021/05/24 02:05:25;;;;;;;1.10;0.65;;;13.50;96.50;;;;;;2065173;28;20062;-68
2021/05/24 02:06:25;;;;;;;3.60;1.05;;;13.50;96.30;;;;;;2065293;28;20033;-68
2021/05/24 02:07:30;;;;;;;5.43;1.05;;;13.50;96.30;;;;;;2065198;28;20034;-68
2021/05/24 02:08:31;;;;;;;1.15;0.88;;;13.50;96.40;;;;;;2064746;28;20037;-68
2021/05/24 02:09:32;;;;;;;1.65;0.60;;;13.50;96.50;;;;;;2065222;28;20077;-68
2021/05/24 02:10:39;;;;;;;0.88;0.63;;;13.50;96.50;;;;;;2064438;28;20533;-68
2021/05/24 02:11:41;;;;;;;4.80;0.82;;;13.50;96.60;;;;;;2064474;28;20102;-68
2021/05/24 02:12:41;;;;;;;0.30;0.30;;;13.50;96.40;;;;;;2064471;28;20134;-68
2021/05/24 02:13:46;;;;;;;1.77;0.47;;;13.50;96.30;;;;;;2065102;28;20054;-69
2021/05/24 02:14:50;;;;;;;1.23;0.73;;;13.60;96.40;;;;;;2064940;28;20030;-68
2021/05/24 02:15:51;;;;;;;1.38;0.40;;;13.50;96.60;;;;;;2065080;28;20018;-68
2021/05/24 02:16:52;;;;;;;2.72;0.77;;;13.50;96.30;;;;;;2065138;28;20026;-68
2021/05/24 02:17:52;;;;;;;1.70;0.63;;;13.50;96.20;;;;;;2065253;28;20030;-68
2021/05/24 02:18:53;;;;;;;1.40;0.70;;;13.50;96.50;;;;;;2065166;28;20022;-68
2021/05/24 02:19:54;;;;;;;1.08;0.60;;;13.50;96.70;;;;;;2064826;28;20537;-68
2021/05/24 02:20:54;;;;;;;2.42;0.85;;;13.50;96.50;;;;;;2064902;28;20034;-68
2021/05/24 02:21:55;;;;;;;1.98;0.50;;;13.50;96.50;;;;;;2065219;28;20109;-68
2021/05/24 02:22:57;;;;;;;2.47;0.73;;;13.50;96.60;;;;;;2064357;28;20037;-68
2021/05/24 02:23:58;;;;;;;1.75;0.52;;;13.50;96.30;;;;;;2065087;28;20081;-68
2021/05/24 02:24:59;;;;;;;2.08;0.77;;;13.50;96.40;;;;;;2064612;28;20050;-68
2021/05/24 02:25:59;;;;;;;2.78;0.68;;;13.50;96.30;;;;;;2065046;28;20023;-68
2021/05/24 02:27:00;;;;;;;1.42;0.55;;;13.50;96.20;;;;;;2065074;28;20105;-68
2021/05/24 02:28:01;;;;;;;1.40;0.80;;;13.50;96.10;;;;;;2065084;28;20053;-68
2021/05/24 02:29:03;;;;;;;1.17;0.65;;;13.50;96.50;;;;;;2064700;28;20360;-68
2021/05/24 02:30:06;;;;;;;1.38;0.73;;;13.60;96.20;;;;;;2065004;28;20041;-68
2021/05/24 02:31:06;;;;;;;0.90;0.50;;;13.60;96.20;;;;;;2064732;28;20062;-68
2021/05/24 02:32:08;;;;;;;1.63;0.70;;;13.60;96.30;;;;;;2064732;28;20019;-68
2021/05/24 02:33:08;;;;;;;2.80;0.93;;;13.60;96.40;;;;;;2064412;28;20556;-68
2021/05/24 02:34:09;;;;;;;1.92;0.70;;;13.50;96.20;;;;;;2064912;28;20433;-68
2021/05/24 02:35:12;;;;;;;1.55;0.80;;;13.60;96.20;;;;;;2064577;28;20097;-68
2021/05/24 02:36:13;;;;;;;1.92;0.70;;;13.50;96.20;;;;;;2064778;28;20018;-68
2021/05/24 02:37:14;;;;;;;1.92;0.68;;;13.50;96.20;;;;;;2064821;28;20105;-68
2021/05/24 02:38:15;;;;;;;1.02;0.40;;;13.50;96.40;;;;;;2065095;28;20018;-68
2021/05/24 02:39:16;;;;;;;0.85;0.50;;;13.50;96.30;;;;;;2064690;28;20022;-68
2021/05/24 02:40:18;;;;;;;3.40;0.70;;;13.50;96.30;;;;;;2065181;28;20030;-68
2021/05/24 02:41:18;;;;;;;1.50;0.50;;;13.50;96.30;;;;;;2064787;28;20030;-68
2021/05/24 02:42:19;;;;;;;3.60;0.50;;;13.50;96.40;;;;;;2063611;28;20544;-68
2021/05/24 02:43:20;;;;;;;4.00;0.80;;;13.50;96.30;;;;;;2063898;28;20057;-68
2021/05/24 02:44:21;;;;;;;0.60;0.50;;;13.50;96.30;;;;;;2064833;28;20061;-68
2021/05/24 02:45:22;;;;;;;1.25;0.40;;;13.50;96.50;;;;;;2064486;28;20049;-68
2021/05/24 02:46:22;;;;;;;1.30;0.55;;;13.50;96.40;;;;;;2065001;28;20022;-68
2021/05/24 02:47:23;;;;;;;1.02;0.60;;;13.50;96.50;;;;;;2064615;28;20026;-68
2021/05/24 02:48:23;;;;;;;1.38;0.70;;;13.50;96.50;;;;;;2064739;28;20393;-68
2021/05/24 02:49:24;;;;;;;1.52;0.73;;;13.50;96.40;;;;;;2064903;28;20034;-68
2021/05/24 02:50:25;;;;;;;1.33;0.55;;;13.50;96.60;;;;;;2064654;28;20026;-68
2021/05/24 02:51:26;;;;;;;0.40;0.40;;;13.50;96.60;;;;;;2064806;28;20073;-68
2021/05/24 02:52:27;;;;;;;1.70;0.50;;;13.50;96.70;;;;;;2064276;28;20062;-68
2021/05/24 02:53:27;;;;;;;2.03;0.85;;;13.40;96.60;;;;;;2064541;28;20034;-68
2021/05/24 02:54:28;;;;;;;1.27;0.63;;;13.50;97.00;;;;;;2064705;28;20101;-68
2021/05/24 02:55:29;;;;;;;1.25;0.80;;;13.40;97.10;;;;;;2064535;28;20054;-68
2021/05/24 02:56:29;;;;;;;1.55;0.82;;;13.40;97.00;;;;;;2072288;28;20058;-68
2021/05/24 02:57:30;;;;;;;2.50;0.60;;;13.40;97.00;;;;;;2072353;28;20466;-68
2021/05/24 02:58:30;;;;;;;0.60;0.43;;;13.40;97.00;;;;;;2064749;28;20018;-68
2021/05/24 02:59:31;;;;;;;1.73;0.80;;;13.50;97.10;;;;;;2064292;28;20050;-68
2021/05/24 03:00:32;;;;;;;4.55;0.73;;;13.40;97.10;;;;;;2064751;28;20278;-68
2021/05/24 03:01:33;;;;;;;2.25;0.70;;;13.40;97.20;;;;;;2063992;28;20030;-68
2021/05/24 03:02:34;;;;;;;1.10;0.55;;;13.40;97.20;;;;;;2063165;28;20038;-68
2021/05/24 03:03:35;;;;;;;3.00;0.70;;;13.40;97.10;;;;;;2063310;28;20463;-68
2021/05/24 03:04:37;;;;;;;1.63;0.70;;;13.40;97.20;;;;;;2063585;28;20053;-68
2021/05/24 03:05:38;;;;;;;0.75;0.50;;;13.40;97.30;;;;;;2063879;28;20105;-68
2021/05/24 03:06:39;;;;;;;2.67;1.30;;;13.50;97.30;;;;;;2063535;28;20042;-68
2021/05/24 03:07:40;;;;;;;2.15;0.60;;;13.40;97.30;;;;;;2063766;28;20430;-68
2021/05/24 03:08:40;;;;;;;1.20;0.50;;;13.40;97.40;;;;;;2063324;28;20034;-68
2021/05/24 03:09:41;;;;;;;3.00;0.70;;;13.40;97.30;;;;;;2063471;28;20026;-68
2021/05/24 03:10:42;;;;;;;2.20;0.93;;;13.40;97.40;;;;;;2063257;28;20030;-68
2021/05/24 03:11:42;;;;;;;1.55;0.43;;;13.40;97.20;;;;;;2062658;28;20029;-68
2021/05/24 03:12:43;;;;;;;0.60;0.57;;;13.40;97.40;;;;;;2062492;28;20022;-68
2021/05/24 03:13:44;;;;;;;2.75;0.63;;;13.40;97.30;;;;;;2063535;28;20462;-68
2021/05/24 03:14:45;;;;;;;1.70;0.70;;;13.40;97.40;;;;;;2063158;28;20376;-68
2021/05/24 03:15:45;;;;;;;1.38;0.65;;;13.40;97.30;;;;;;2063410;28;20124;-68
2021/05/24 03:16:46;;;;;;;1.25;0.60;;;13.40;97.30;;;;;;2063239;28;20157;-68
2021/05/24 03:17:47;;;;;;;1.85;0.88;;;13.40;97.30;;;;;;2063174;28;20088;-68
2021/05/24 03:18:47;;;;;;;2.45;0.80;;;13.40;97.30;;;;;;2063152;28;20030;-68
2021/05/24 03:19:48;;;;;;;1.25;0.60;;;13.40;97.30;;;;;;2063206;28;20391;-68
2021/05/24 03:20:49;;;;;;;2.35;0.75;;;13.40;97.30;;;;;;2063231;28;20113;-68
2021/05/24 03:21:49;;;;;;;1.85;0.65;;;13.40;97.40;;;;;;2063387;28;20026;-68
2021/05/24 03:22:50;;;;;;;1.95;0.63;;;13.30;97.50;;;;;;2062514;28;20324;-68
2021/05/24 03:23:51;;;;;;;4.35;0.73;;;13.40;97.50;;;;;;2063161;28;20033;-68
2021/05/24 03:24:51;;;;;;;1.85;0.60;;;13.40;97.80;;;;;;2062866;28;20022;-68
2021/05/24 03:25:52;;;;;;;0.88;0.73;;;13.40;97.50;;;;;;2063246;28;20097;-68
2021/05/24 03:26:52;;;;;;;2.28;0.80;;;13.40;97.80;;;;;;2063244;28;20022;-68
2021/05/24 03:27:53;;;;;;;1.38;0.60;;;13.40;97.60;;;;;;2063299;28;20158;-68
2021/05/24 03:28:53;;;;;;;1.33;0.70;;;13.40;97.60;;;;;;2063103;28;20490;-68
2021/05/24 03:29:54;;;;;;;2.83;0.77;;;13.40;97.80;;;;;;2063042;28;20030;-68
2021/05/24 03:30:55;;;;;;;3.78;0.80;;;13.40;97.70;;;;;;2062741;28;20034;-68
2021/05/24 03:31:55;;;;;;;2.55;0.73;;;13.40;97.70;;;;;;2055327;28;20034;-68
2021/05/24 03:32:56;;;;;;;2.97;0.88;;;13.40;97.50;;;;;;2060702;28;20038;-68
2021/05/24 03:33:57;;;;;;;2.58;0.88;;;13.40;97.90;;;;;;2063094;28;20532;-68
2021/05/24 03:34:57;;;;;;;1.92;0.80;;;13.40;97.60;;;;;;2063509;28;20523;-68
2021/05/24 03:35:58;;;;;;;3.13;0.80;;;13.40;97.60;;;;;;2062724;28;20098;-68
2021/05/24 03:36:58;;;;;;;1.73;0.60;;;13.40;97.80;;;;;;2063260;28;20058;-68
2021/05/24 03:38:00;;;;;;;1.65;0.70;;;13.50;97.70;;;;;;2062898;28;20019;-68
2021/05/24 03:39:00;;;;;;;1.02;0.60;;;13.50;97.70;;;;;;2063095;28;20018;-68
2021/05/24 03:40:01;;;;;;;1.60;0.60;;;13.50;97.60;;;;;;2063028;28;20065;-68
2021/05/24 03:41:03;;;;;;;1.02;0.40;;;13.50;97.80;;;;;;2063200;28;20034;-68
2021/05/24 03:42:04;;;;;;;3.40;0.73;;;13.50;97.70;;;;;;2063153;28;20037;-68
2021/05/24 03:43:05;;;;;;;1.73;0.52;;;13.50;97.50;;;;;;2062638;28;20019;-68
2021/05/24 03:44:06;;;;;;;1.73;0.65;;;13.50;97.60;;;;;;2062645;28;20026;-68
2021/05/24 03:45:14;;;;;;;2.53;0.90;;;13.50;97.60;;;;;;2070535;28;20026;-68
2021/05/24 03:46:15;;;;;;;0.82;0.52;;;13.50;97.80;;;;;;2069493;28;20467;-68
2021/05/24 03:47:16;;;;;;;2.15;0.95;;;13.50;97.60;;;;;;2063192;28;20088;-68
2021/05/24 03:48:16;;;;;;;1.30;0.60;;;13.50;97.70;;;;;;2062945;28;20033;-68
2021/05/24 03:49:17;;;;;;;2.22;0.50;;;13.50;97.70;;;;;;2062933;28;20034;-68
2021/05/24 03:50:18;;;;;;;1.48;0.55;;;13.50;97.80;;;;;;2062906;28;20532;-68
2021/05/24 03:51:19;;;;;;;0.82;0.80;;;13.50;97.50;;;;;;2063141;28;20069;-68
2021/05/24 03:52:19;;;;;;;1.65;0.57;;;13.50;97.70;;;;;;2062307;28;20482;-68
2021/05/24 03:53:20;;;;;;;2.08;0.95;;;13.50;97.60;;;;;;2063514;28;20107;-68
2021/05/24 03:54:20;;;;;;;2.75;0.70;;;13.50;97.40;;;;;;2062483;28;20057;-68
2021/05/24 03:55:21;;;;;;;2.45;0.70;;;13.50;97.80;;;;;;2063095;28;20389;-68
2021/05/24 03:56:22;;;;;;;0.47;0.40;;;13.60;97.70;;;;;;2062897;28;20038;-68
2021/05/24 03:57:22;;;;;;;0.85;0.55;;;13.60;97.80;;;;;;2063517;28;20030;-68
2021/05/24 03:58:23;;;;;;;1.63;0.45;;;13.60;97.60;;;;;;2062767;28;20026;-68
2021/05/24 03:59:23;;;;;;;1.63;0.70;;;13.60;97.70;;;;;;2063089;28;20026;-68
2021/05/24 04:00:24;;;;;;;2.63;0.80;;;13.60;97.60;;;;;;2062746;28;20045;-68
2021/05/24 04:01:25;;;;;;;1.67;0.52;;;13.60;97.40;;;;;;2062985;28;20061;-68
2021/05/24 04:02:25;;;;;;;1.88;0.60;;;13.60;97.30;;;;;;2062625;28;20030;-68
2021/05/24 04:03:26;;;;;;;1.95;0.60;;;13.70;97.30;;;;;;2062902;28;20042;-68
2021/05/24 04:04:27;;;;;;;1.80;0.68;;;13.70;97.10;;;;;;2062749;28;20041;-68
2021/05/24 04:05:38;;;;;;;1.88;0.70;;;13.70;97.00;;;;;;2063392;28;20369;-68
2021/05/24 04:06:40;;;;;;;0.95;0.50;;;13.80;97.00;;;;;;2062988;28;20042;-68
2021/05/24 04:07:44;;;;;;;4.80;0.80;;;13.80;96.90;;;;;;2063179;28;20053;-68
2021/05/24 04:08:47;;;;;;;3.17;0.70;;;13.80;96.80;;;;;;2062842;28;20030;-68
2021/05/24 04:09:47;;;;;;;0.95;0.70;;;13.90;96.80;;;;;;2063001;28;20018;-68
2021/05/24 04:10:53;;;;;;;2.17;0.47;;;13.80;96.90;;;;;;2062929;28;20026;-68
2021/05/24 04:11:54;;;;;;;0.93;0.52;;;13.90;96.90;;;;;;2064534;28;20041;-68
2021/05/24 04:12:54;;;;;;;2.17;0.65;;;13.90;96.90;;;;;;2064381;28;20030;-68
2021/05/24 04:13:55;;;;;;;2.28;1.00;;;13.90;96.90;;;;;;2064757;28;20032;-68
2021/05/24 04:14:56;;;;;;;1.08;0.60;;;13.90;96.70;;;;;;2064227;28;20067;-68
2021/05/24 04:15:58;;;;;;;0.98;0.73;;;14.00;96.50;;;;;;2064470;28;20030;-68
2021/05/24 04:16:58;;;;;;;1.42;0.80;;;14.00;96.30;;;;;;2064426;28;20057;-68
2021/05/24 04:18:01;;;;;;;0.90;0.60;;;14.00;96.40;;;;;;2064660;28;20030;-68
2021/05/24 04:19:07;;;;;;;2.97;0.95;;;14.00;96.10;;;;;;2064716;28;20023;-68
2021/05/24 04:20:11;;;;;;;1.75;0.80;;;14.00;96.00;;;;;;2064874;28;20372;-68
2021/05/24 04:21:11;;;;;;;1.92;0.60;;;14.00;95.90;;;;;;2064497;28;20030;-68
2021/05/24 04:22:12;;;;;;;1.35;0.55;;;14.10;95.90;;;;;;2064300;28;20498;-68
2021/05/24 04:23:14;;;;;;;1.95;1.00;;;14.10;95.90;;;;;;2064366;28;20069;-68
2021/05/24 04:24:15;;;;;;;3.28;0.63;;;14.10;96.00;;;;;;2064399;28;20034;-68
2021/05/24 04:25:16;;;;;;;3.33;1.13;;;14.20;95.80;;;;;;2064840;28;20371;-68
2021/05/24 04:26:17;;;;;;;0.85;0.60;;;14.20;95.50;;;;;;2064869;28;20038;-68
2021/05/24 04:27:17;;;;;;;3.38;0.70;;;14.30;95.00;;;;;;2064366;28;20479;-68
2021/05/24 04:28:18;;;;;;;3.13;0.93;;;14.40;94.80;;;;;;2064573;28;20038;-68
2021/05/24 04:29:19;;;;;;;1.00;0.60;;;14.50;94.40;;;;;;2064330;28;20030;-68
2021/05/24 04:30:20;;;;;;;1.80;0.50;;;14.50;94.30;;;;;;2064599;28;20034;-68
2021/05/24 04:31:22;;;;;;;1.55;0.55;;;14.60;93.60;;;;;;2064364;28;20065;-68
2021/05/24 04:32:22;;;;;;;1.13;0.45;;;14.60;93.60;;;;;;2063828;28;20234;-68
2021/05/24 04:33:23;;;;;;;1.30;0.60;;;14.60;93.80;;;;;;2064869;28;20046;-68
2021/05/24 04:34:23;;;;;;;2.63;0.60;;;14.50;93.60;;;;;;2064297;28;20035;-68
2021/05/24 04:35:24;;;;;;;1.70;0.50;;;14.60;93.80;;;;;;2064650;28;20022;-68
2021/05/24 04:36:25;;;;;;;5.40;0.90;;;14.50;93.80;;;;;;2064178;28;20198;-68
2021/05/24 04:37:25;;;;;;;1.20;0.68;;;14.60;94.10;;;;;;2064627;28;20026;-68
2021/05/24 04:38:26;;;;;;;1.40;0.60;;;14.60;94.20;;;;;;2064548;28;20038;-68
2021/05/24 04:39:26;;;;;;;3.95;1.02;;;14.50;94.10;;;;;;2064609;28;20033;-68
2021/05/24 04:40:27;;;;;;;3.63;0.82;;;14.50;93.90;;;;;;2064201;28;20061;-68
2021/05/24 04:41:28;;;;;;;3.28;0.95;;;14.50;93.90;;;;;;2064245;28;20031;-68
2021/05/24 04:42:28;;;;;;;1.58;0.80;;;14.50;94.00;;;;;;2063488;28;20056;-68
2021/05/24 04:43:32;;;;;;;1.60;0.45;;;14.50;93.90;;;;;;2064809;28;20034;-68
2021/05/24 04:44:32;;;;;;;1.58;0.55;;;14.60;94.20;;;;;;2064222;28;20034;-68
2021/05/24 04:45:33;;;;;;;1.83;0.50;;;14.60;93.70;;;;;;2064370;28;20057;-68
2021/05/24 04:46:33;;;;;;;1.55;0.70;;;14.60;93.70;;;;;;2063957;28;20076;-68
2021/05/24 04:47:34;;;;;;;2.15;0.90;;;14.60;93.70;;;;;;2064890;28;20029;-68
2021/05/24 04:48:35;;;;;;;1.52;0.70;;;14.60;93.60;;;;;;2064174;28;20030;-68
2021/05/24 04:49:35;;;;;;;3.08;0.88;;;14.60;93.70;;;;;;2064399;28;20032;-68
2021/05/24 04:50:37;;;;;;;2.42;0.70;;;14.60;93.10;;;;;;2064024;28;20537;-68
2021/05/24 04:51:37;;;;;;;1.33;0.45;;;14.60;93.10;;;;;;2064053;28;20030;-68
2021/05/24 04:52:38;;;;;;;2.97;0.80;;;14.60;93.20;;;;;;2063650;28;20058;-68
2021/05/24 04:53:38;;;;;;;0.95;0.70;;;14.70;93.40;;;;;;2064779;28;20490;-68
2021/05/24 04:54:39;;;;;;;0.75;0.50;;;14.70;93.20;;;;;;2064277;28;20026;-68
2021/05/24 04:55:39;;;;;;;2.83;0.80;;;14.70;93.70;;;;;;2064253;28;20022;-68
2021/05/24 04:56:40;;;;;;;3.95;0.70;;;14.70;93.50;;;;;;2063995;28;20068;-68
2021/05/24 04:57:41;;;;;;;1.40;0.47;;;14.70;93.50;;;;;;2064418;28;20470;-68
2021/05/24 04:58:41;;;;;;;2.50;0.70;;;14.80;93.10;;;;;;2064385;28;20030;-68
2021/05/24 04:59:42;;;;;;;0.93;0.50;;;14.80;93.10;;;;;;2063742;28;20022;-68
2021/05/24 05:00:42;;;;;;;2.38;0.60;;;14.80;93.40;;;;;;2063433;28;20026;-68
2021/05/24 05:01:43;;;;;;;1.70;0.50;;;14.90;92.90;;;;;;2063984;28;20042;-68
2021/05/24 05:02:43;;;;;;;1.25;0.40;;;15.00;92.80;;;;;;2063455;28;20372;-68
2021/05/24 05:03:44;;;;;;;3.42;0.63;;;15.00;93.40;;;;;;2071747;28;20065;-68
2021/05/24 05:04:46;;;;;;;1.42;0.50;;;15.10;93.40;;;;;;2071528;28;20548;-68
2021/05/24 05:05:46;;;;;;;1.58;0.50;;;15.20;93.20;;;;;;2064538;28;20097;-68
2021/05/24 05:06:47;;;;;;;2.25;0.63;;;15.30;92.90;;;;;;2064255;28;20026;-68
2021/05/24 05:07:47;;;;;;;1.15;0.65;;;15.40;92.10;;;;;;2064202;28;20438;-68
2021/05/24 05:08:48;;;;;;;2.13;0.70;;;15.40;91.50;;;;;;2063408;28;20116;-68
2021/05/24 05:09:49;;;;;;;1.20;0.50;;;15.50;92.00;;;;;;2063814;28;20474;-68
2021/05/24 05:10:49;;;;;;;3.00;1.00;;;15.60;90.90;;;;;;2064652;28;20031;-68
2021/05/24 05:11:50;;;;;;;1.88;0.85;;;15.70;90.60;;;;;;2063812;28;20069;-68
2021/05/24 05:12:50;;;;;;;1.23;0.60;;;15.70;91.40;;;;;;2063654;28;20039;-68
2021/05/24 05:13:51;;;;;;;1.90;0.60;;;15.80;91.30;;;;;;2064340;28;20019;-68
2021/05/24 05:14:52;;;;;;;2.05;0.60;;;15.90;90.30;;;;;;2064097;28;20045;-68
2021/05/24 05:15:53;;;;;;;2.55;0.80;;;16.00;88.60;;;;;;2063358;28;20034;-68
2021/05/24 05:16:53;;;;;;;1.85;0.40;;;16.10;90.10;;;;;;2063674;28;20411;-68
2021/05/24 05:17:54;;;;;;;2.17;0.82;;;16.10;88.70;;;;;;2064029;28;20430;-68
2021/05/24 05:18:55;;;;;;;1.88;0.63;;;16.20;89.20;;;;;;2063682;28;20031;-68